Time;durP1;ratioP1;P1;durP2;ratioP2;P2;SDS_P1;SDS_P2;PMS_P1;PMS_P2;Temp;Humidity;BMP_temperature;BMP_pressure;BME280_temperature;BME280_humidity;BME280_pressure;Samples;Min_cycle;Max_cycle;Signal;HPM_P1;HPM_P2
2022/11/09 00:00:22;;;;;;;10.45;2.55;;;;;;;12.36;87.07;100441.59;5096833;28;20689;-82
2022/11/09 00:02:47;;;;;;;11.90;2.67;;;;;;;12.36;86.83;100437.09;5103715;28;20026;-82
2022/11/09 00:05:13;;;;;;;9.57;2.70;;;;;;;12.35;87.33;100439.91;5102266;28;20111;-82
2022/11/09 00:07:38;;;;;;;6.38;2.33;;;;;;;12.31;87.09;100447.31;5084363;28;20031;-82
2022/11/09 00:10:04;;;;;;;4.65;2.28;;;;;;;12.30;87.58;100439.47;5101745;28;20073;-82
2022/11/09 00:12:29;;;;;;;8.07;2.50;;;;;;;12.27;87.42;100437.91;5088862;28;20032;-82
2022/11/09 00:14:54;;;;;;;8.40;2.30;;;;;;;12.25;87.39;100436.38;5095535;28;20024;-81
2022/11/09 00:17:19;;;;;;;10.53;2.50;;;;;;;12.23;87.81;100439.19;5099646;28;20285;-82
2022/11/09 00:19:45;;;;;;;5.63;2.13;;;;;;;12.20;87.90;100437.63;5099570;28;20284;-81
2022/11/09 00:22:11;;;;;;;6.40;2.58;;;;;;;12.20;88.10;100437.63;5101705;28;20278;-82
2022/11/09 00:24:36;;;;;;;6.05;2.15;;;;;;;12.21;88.64;100435.81;5101418;28;20035;-81
2022/11/09 00:27:01;;;;;;;4.80;2.20;;;;;;;12.20;88.81;100437.63;5101368;28;20036;-81
2022/11/09 00:29:27;;;;;;;7.68;2.20;;;;;;;12.20;88.91;100439.47;5101481;28;20076;-82
2022/11/09 00:31:52;;;;;;;4.53;2.22;;;;;;;12.22;88.61;100437.50;5094686;28;20111;-81
2022/11/09 00:34:17;;;;;;;7.30;2.50;;;;;;;12.24;88.80;100438.22;5101041;28;20382;-82
2022/11/09 00:36:42;;;;;;;9.05;2.33;;;;;;;12.23;88.82;100436.53;5100558;28;20274;-81
2022/11/09 00:39:08;;;;;;;7.38;2.47;;;;;;;12.26;88.95;100424.72;5098785;28;20128;-81
2022/11/09 00:41:33;;;;;;;6.60;2.40;;;;;;;12.26;89.09;100430.06;5083915;28;20092;-81
2022/11/09 00:43:58;;;;;;;5.03;2.42;;;;;;;12.27;89.42;100424.59;5096524;28;20059;-81
2022/11/09 00:46:24;;;;;;;5.88;2.30;;;;;;;12.29;89.30;100424.47;5090501;28;20024;-81
2022/11/09 00:48:49;;;;;;;4.32;2.15;;;;;;;12.31;89.16;100419.88;5082053;28;20127;-81
2022/11/09 00:51:14;;;;;;;7.97;2.42;;;;;;;12.30;89.34;100419.00;5091744;28;20024;-81
2022/11/09 00:53:41;;;;;;;8.00;2.13;;;;;;;12.35;88.94;100426.59;5089589;28;20477;-81
2022/11/09 00:56:10;;;;;;;7.97;2.55;;;;;;;12.34;89.14;100417.75;5087364;28;20028;-82
2022/11/09 00:58:37;;;;;;;6.20;2.30;;;;;;;12.36;88.74;100420.28;5096403;28;20032;-81
2022/11/09 01:01:14;;;;;;;5.93;2.00;;;;;;;12.37;88.54;100414.81;5088958;28;20028;-82
2022/11/09 01:03:40;;;;;;;5.55;2.20;;;;;;;12.38;88.47;100416.47;5083768;28;20039;-81
2022/11/09 01:06:06;;;;;;;5.20;2.58;;;;;;;12.38;88.27;100424.47;5097945;28;20598;-81
2022/11/09 01:08:33;;;;;;;7.95;2.33;;;;;;;12.41;88.33;100434.03;5096466;28;20115;-81
2022/11/09 01:11:06;;;;;;;3.38;2.03;;;;;;;12.42;88.24;100430.34;5092263;28;20081;-82
2022/11/09 01:13:33;;;;;;;12.48;2.40;;;;;;;12.44;87.83;100432.88;5097459;28;20065;-81
2022/11/09 01:15:58;;;;;;;6.93;2.25;;;;;;;12.44;87.33;100432.88;5098670;28;20028;-81
2022/11/09 01:18:23;;;;;;;10.98;2.65;;;;;;;12.46;87.48;100438.94;5090732;28;20085;-82
2022/11/09 01:20:49;;;;;;;4.65;2.22;;;;;;;12.44;87.49;100452.38;5098707;28;20052;-81
2022/11/09 01:23:17;;;;;;;5.95;2.17;;;;;;;12.44;87.64;100455.06;5098641;28;20050;-82
2022/11/09 01:25:42;;;;;;;6.07;2.22;;;;;;;12.46;87.21;100457.59;5097184;28;20501;-81
2022/11/09 01:28:09;;;;;;;6.20;2.17;;;;;;;12.45;87.30;100455.88;5077525;28;20023;-81
2022/11/09 01:30:44;;;;;;;11.45;2.60;;;;;;;12.46;87.06;100449.59;5104251;28;20077;-81
2022/11/09 01:33:10;;;;;;;5.63;2.17;;;;;;;12.43;86.91;100453.34;5100788;28;20488;-81
2022/11/09 01:35:37;;;;;;;8.10;1.90;;;;;;;12.42;86.85;100453.50;5098481;28;20024;-82
2022/11/09 01:38:04;;;;;;;4.32;2.10;;;;;;;12.37;87.02;100449.44;5102950;28;20425;-82
2022/11/09 01:40:34;;;;;;;10.82;2.70;;;;;;;12.40;86.75;100451.81;5104968;28;20032;-82
2022/11/09 01:43:17;;;;;;;8.18;2.22;;;;;;;12.39;86.91;100455.47;5094695;28;20032;-82
2022/11/09 01:45:49;;;;;;;6.68;2.33;;;;;;;12.34;86.62;100449.72;5097348;28;20031;-82
2022/11/09 01:48:18;;;;;;;6.00;2.15;;;;;;;12.37;86.71;100461.91;5091058;28;20101;-82
2022/11/09 01:50:58;;;;;;;6.20;2.10;;;;;;;12.34;86.63;100455.03;5104818;28;20035;-82
2022/11/09 01:53:28;;;;;;;4.63;2.35;;;;;;;12.36;86.32;100446.91;5098543;28;20058;-82
2022/11/09 01:55:56;;;;;;;7.80;2.40;;;;;;;12.36;86.27;100445.09;5107193;28;20028;-82
2022/11/09 01:58:26;;;;;;;5.30;2.30;;;;;;;12.34;86.31;100438.19;5105232;28;20024;-82
2022/11/09 02:00:55;;;;;;;6.50;2.00;;;;;;;12.31;86.29;100444.66;5107295;28;20073;-82
2022/11/09 02:03:24;;;;;;;;;;;;;;;12.35;86.36;100461.19;5094846;28;20050;-82
2022/11/09 02:05:50;;;;;;;6.95;2.38;;;;;;;12.27;86.66;100453.88;5088112;28;19909;-83
2022/11/09 02:08:18;;;;;;;9.07;2.20;;;;;;;12.26;86.47;100451.38;5091297;28;20031;-82
2022/11/09 02:11:12;;;;;;;9.35;2.42;;;;;;;12.26;86.52;100456.69;5089996;28;20065;-82
2022/11/09 02:13:42;;;;;;;10.30;2.63;;;;;;;12.24;86.47;100464.84;5096305;28;20466;-82
2022/11/09 02:16:10;;;;;;;8.63;2.40;;;;;;;12.24;86.61;100456.00;5108897;28;20038;-82
2022/11/09 02:18:37;;;;;;;6.30;2.10;;;;;;;12.20;86.37;100455.44;5111828;28;20016;-81
2022/11/09 02:21:02;;;;;;;6.68;2.42;;;;;;;12.20;86.37;100460.75;5106882;28;20028;-81
2022/11/09 02:23:28;;;;;;;7.88;2.30;;;;;;;12.19;86.48;100451.94;5114972;28;20036;-81
2022/11/09 02:26:02;;;;;;;8.13;2.10;;;;;;;12.19;86.38;100467.06;5115380;28;20043;-82
2022/11/09 02:28:29;;;;;;;10.93;2.30;;;;;;;12.17;86.49;100461.03;5101658;28;20032;-81
2022/11/09 02:30:57;;;;;;;7.82;2.20;;;;;;;12.14;86.59;100477.28;5097130;28;20043;-82
2022/11/09 02:33:22;;;;;;;8.88;2.50;;;;;;;12.18;86.31;100476.03;5103070;28;20039;-82
2022/11/09 02:35:47;;;;;;;8.50;2.50;;;;;;;12.17;86.67;100477.88;5098107;28;20473;-82
2022/11/09 02:38:13;;;;;;;7.95;2.17;;;;;;;12.17;86.78;100485.00;5091035;28;20366;-82
2022/11/09 02:40:42;;;;;;;9.27;2.92;;;;;;;12.18;86.41;100468.88;5091377;28;20055;-82
2022/11/09 02:43:10;;;;;;;6.60;2.22;;;;;;;12.18;86.24;100460.91;5099499;28;20055;-82
2022/11/09 02:45:36;;;;;;;8.00;2.40;;;;;;;12.18;86.34;100455.56;5091336;28;20149;-82
2022/11/09 02:48:02;;;;;;;7.65;2.20;;;;;;;12.19;86.21;100446.63;5091890;28;20363;-82
2022/11/09 02:50:27;;;;;;;9.00;2.28;;;;;;;12.21;85.76;100449.97;5100075;28;20021;-81
2022/11/09 02:52:52;;;;;;;10.00;2.63;;;;;;;12.21;85.50;100435.81;5098228;28;20028;-82
2022/11/09 02:55:18;;;;;;;8.10;2.10;;;;;;;12.23;85.22;100417.06;5097787;28;20036;-81
2022/11/09 02:57:43;;;;;;;7.50;2.22;;;;;;;12.26;84.56;100420.28;5101223;28;20053;-82
2022/11/09 03:00:09;;;;;;;5.82;2.20;;;;;;;12.26;84.96;100433.59;5089160;28;20094;-81
2022/11/09 03:02:35;;;;;;;10.73;2.63;;;;;;;12.24;84.97;100434.69;5100228;28;20020;-82
2022/11/09 03:05:00;;;;;;;9.98;2.40;;;;;;;12.26;85.10;100440.72;5098909;28;20081;-82
2022/11/09 03:07:25;;;;;;;6.03;2.22;;;;;;;12.25;85.26;100442.53;5104459;28;20047;-81
2022/11/09 03:09:52;;;;;;;7.93;2.08;;;;;;;12.25;85.26;100461.19;5103186;28;20020;-82
2022/11/09 03:12:30;;;;;;;9.32;2.22;;;;;;;12.24;85.25;100462.19;5085050;28;20035;-81
2022/11/09 03:14:57;;;;;;;7.43;2.63;;;;;;;12.24;85.46;100469.31;5090821;28;20032;-81
2022/11/09 03:17:22;;;;;;;9.20;2.65;;;;;;;12.23;85.49;100478.28;5102574;28;20397;-82
2022/11/09 03:19:47;;;;;;;8.70;2.20;;;;;;;12.23;85.97;100484.44;5100090;28;20024;-82
2022/11/09 03:22:13;;;;;;;7.88;2.28;;;;;;;12.21;85.89;100489.91;5096301;28;20374;-82
2022/11/09 03:24:38;;;;;;;9.25;2.40;;;;;;;12.21;85.50;100491.75;5098668;28;20027;-82
2022/11/09 03:27:03;;;;;;;9.23;2.65;;;;;;;12.20;85.61;100501.53;5103232;28;20111;-82
2022/11/09 03:29:28;;;;;;;8.27;2.63;;;;;;;12.20;85.81;100490.03;5092390;28;20028;-82
2022/11/09 03:31:54;;;;;;;10.32;2.42;;;;;;;12.20;86.00;100485.56;5093283;28;20024;-82
2022/11/09 03:34:19;;;;;;;12.77;2.80;;;;;;;12.20;86.07;100487.38;5094010;28;20020;-81
2022/11/09 03:36:44;;;;;;;12.63;2.70;;;;;;;12.19;85.76;100486.56;5084633;28;20107;-81
2022/11/09 03:39:10;;;;;;;9.00;2.37;;;;;;;12.18;86.26;100492.00;5086134;28;20052;-81
2022/11/09 03:41:35;;;;;;;7.10;2.22;;;;;;;12.17;86.00;100501.81;5101817;28;20312;-81
2022/11/09 03:44:00;;;;;;;8.30;2.30;;;;;;;12.17;86.19;100496.50;5085371;28;20385;-82
2022/11/09 03:46:26;;;;;;;9.35;2.83;;;;;;;12.17;86.19;100507.16;5083662;28;20023;-81
2022/11/09 03:48:51;;;;;;;11.43;2.35;;;;;;;12.17;86.66;100504.50;5096801;28;20377;-81
2022/11/09 03:51:17;;;;;;;8.35;2.13;;;;;;;12.18;86.41;100519.47;5088029;28;20031;-82
2022/11/09 03:53:42;;;;;;;9.70;2.50;;;;;;;12.16;86.78;100520.59;5094151;28;20053;-82
2022/11/09 03:56:07;;;;;;;9.68;2.30;;;;;;;12.14;87.01;100526.06;5101600;28;20028;-82
2022/11/09 03:58:32;;;;;;;9.85;2.72;;;;;;;12.11;87.13;100525.50;5092533;28;20414;-81
2022/11/09 04:00:58;;;;;;;9.25;2.42;;;;;;;12.11;86.91;100536.13;5100278;28;20025;-81
2022/11/09 04:03:23;;;;;;;13.30;2.75;;;;;;;12.11;86.99;100530.81;5101853;28;20032;-81
2022/11/09 04:05:48;;;;;;;10.25;2.60;;;;;;;12.09;87.24;100535.41;5101350;28;20020;-82
2022/11/09 04:08:13;;;;;;;11.85;3.40;;;;;;;12.05;87.48;100540.16;5100218;28;20020;-82
2022/11/09 04:10:39;;;;;;;8.75;2.28;;;;;;;12.01;87.51;100542.25;5101930;28;20499;-82
2022/11/09 04:13:04;;;;;;;7.90;2.27;;;;;;;11.99;87.81;100544.22;5099312;28;20035;-82
2022/11/09 04:15:29;;;;;;;10.68;2.58;;;;;;;11.94;87.92;100537.59;5093283;28;20364;-81
2022/11/09 04:17:57;;;;;;;13.13;2.80;;;;;;;11.91;87.91;100545.84;5097272;28;20408;-82
2022/11/09 04:20:22;;;;;;;12.90;2.38;;;;;;;11.90;88.01;100560.09;5099976;28;20024;-81
2022/11/09 04:23:02;;;;;;;10.35;3.00;;;;;;;11.88;88.28;100557.56;5098570;28;20032;-82
2022/11/09 04:25:32;;;;;;;9.98;2.40;;;;;;;11.84;88.23;100554.34;5096459;28;20059;-82
2022/11/09 04:27:58;;;;;;;8.57;2.55;;;;;;;11.83;88.48;100565.13;5101972;28;20024;-82
2022/11/09 04:30:26;;;;;;;11.93;2.30;;;;;;;11.80;88.39;100573.38;5099433;28;20075;-82
2022/11/09 04:32:53;;;;;;;8.73;2.20;;;;;;;11.78;88.67;100572.66;5101097;28;20115;-82
2022/11/09 04:35:18;;;;;;;13.45;2.40;;;;;;;11.76;88.98;100569.28;5092290;28;20024;-82
2022/11/09 04:37:51;;;;;;;10.65;2.13;;;;;;;11.76;89.08;100582.59;5098602;28;20573;-82
2022/11/09 04:40:17;;;;;;;7.32;2.53;;;;;;;11.74;88.97;100580.06;5078006;28;20450;-81
2022/11/09 04:42:42;;;;;;;12.57;2.10;;;;;;;11.75;89.18;100573.75;5091599;28;20154;-81
2022/11/09 04:45:08;;;;;;;10.73;2.42;;;;;;;11.74;89.11;100580.06;5094756;28;20027;-82
2022/11/09 04:47:33;;;;;;;8.35;2.40;;;;;;;11.73;88.90;100580.19;5082184;28;20027;-82
2022/11/09 04:49:58;;;;;;;8.98;2.17;;;;;;;11.73;89.26;100574.88;5083822;28;20394;-81
2022/11/09 04:52:23;;;;;;;10.80;2.55;;;;;;;11.73;89.52;100578.38;5100741;28;20016;-81
2022/11/09 04:54:49;;;;;;;8.82;2.53;;;;;;;11.74;89.45;100580.06;5097930;28;20027;-82
2022/11/09 04:57:14;;;;;;;10.35;2.30;;;;;;;11.72;89.45;100582.00;5100854;28;20484;-81
2022/11/09 04:59:39;;;;;;;12.77;2.80;;;;;;;11.71;89.33;100580.31;5099201;28;20115;-82
2022/11/09 05:02:04;;;;;;;11.50;2.75;;;;;;;11.70;89.50;100578.63;5100738;28;20277;-81
2022/11/09 05:04:30;;;;;;;9.47;2.40;;;;;;;11.69;90.00;100570.78;5100168;28;20056;-82
2022/11/09 05:06:55;;;;;;;14.13;3.10;;;;;;;11.68;89.77;100569.94;5100780;28;20285;-83
2022/11/09 05:09:20;;;;;;;11.75;2.50;;;;;;;11.67;89.84;100578.88;5089892;28;20381;-82
2022/11/09 05:11:45;;;;;;;10.13;2.88;;;;;;;11.66;89.77;100578.06;5100220;28;20465;-82
2022/11/09 05:14:11;;;;;;;8.82;2.25;;;;;;;11.63;89.51;100573.00;5100191;28;20063;-82
2022/11/09 05:16:36;;;;;;;12.05;2.55;;;;;;;11.63;89.78;100566.84;5096572;28;20055;-82
2022/11/09 05:19:01;;;;;;;12.85;3.15;;;;;;;11.62;89.67;100570.47;5092759;28;20032;-82
2022/11/09 05:21:26;;;;;;;12.63;2.83;;;;;;;11.60;89.75;100564.44;5094014;28;20017;-81
2022/11/09 05:23:58;;;;;;;9.27;2.20;;;;;;;11.58;89.94;100564.56;5092699;28;20036;-82
2022/11/09 05:26:26;;;;;;;10.90;2.50;;;;;;;11.54;89.87;100568.47;5084261;28;20030;-81
2022/11/09 05:28:52;;;;;;;13.05;2.55;;;;;;;11.50;90.04;100556.38;5103201;28;20206;-82
2022/11/09 05:31:17;;;;;;;9.60;2.38;;;;;;;11.48;90.08;100556.53;5099811;28;20029;-82
2022/11/09 05:33:43;;;;;;;10.35;2.63;;;;;;;11.47;90.33;100564.63;5103930;28;20047;-82
2022/11/09 05:36:08;;;;;;;10.52;2.90;;;;;;;11.44;90.17;100567.53;5101731;28;20032;-82
2022/11/09 05:38:33;;;;;;;11.23;2.20;;;;;;;11.44;90.30;100562.22;5104175;28;20094;-82
2022/11/09 05:40:58;;;;;;;11.40;2.88;;;;;;;11.41;90.24;100566.00;5104124;28;20477;-82
2022/11/09 05:43:24;;;;;;;7.43;2.35;;;;;;;11.41;90.54;100567.81;5103682;28;20028;-82
2022/11/09 05:45:49;;;;;;;10.63;2.70;;;;;;;11.39;90.58;100573.28;5104892;28;20038;-82
2022/11/09 05:48:16;;;;;;;11.52;2.78;;;;;;;11.37;90.28;100566.38;5104415;28;20036;-82
2022/11/09 05:50:43;;;;;;;17.77;3.55;;;;;;;11.35;90.70;100557.69;5103424;28;20020;-82
2022/11/09 05:53:10;;;;;;;15.23;2.90;;;;;;;11.34;90.61;100569.28;5099808;28;20626;-82
2022/11/09 05:55:35;;;;;;;7.40;2.60;;;;;;;11.31;90.89;100567.75;5104956;28;20093;-82
2022/11/09 05:58:00;;;;;;;12.05;2.65;;;;;;;11.28;90.78;100563.53;5104622;28;20024;-82
2022/11/09 06:00:27;;;;;;;14.05;3.00;;;;;;;11.28;90.83;100566.19;5098116;28;20103;-82
2022/11/09 06:02:52;;;;;;;11.05;3.13;;;;;;;11.26;90.95;100559.31;5099127;28;20043;-82
2022/11/09 06:05:19;;;;;;;13.02;3.47;;;;;;;11.23;91.36;100563.06;5103343;28;20556;-82
2022/11/09 06:07:44;;;;;;;9.75;2.60;;;;;;;11.23;91.59;100568.38;5103597;28;20389;-82
2022/11/09 06:10:10;;;;;;;10.55;2.70;;;;;;;11.23;91.67;100568.38;5097588;28;20020;-82
2022/11/09 06:12:35;;;;;;;10.07;2.70;;;;;;;11.23;91.56;100572.88;5101796;28;20544;-82
2022/11/09 06:15:01;;;;;;;15.27;3.40;;;;;;;11.18;91.99;100575.06;5103286;28;20028;-82
2022/11/09 06:17:26;;;;;;;11.10;2.80;;;;;;;11.20;91.53;100578.44;5101230;28;20024;-82
2022/11/09 06:19:51;;;;;;;13.15;3.00;;;;;;;11.18;92.11;100577.72;5098438;28;20651;-83
2022/11/09 06:22:16;;;;;;;9.32;2.67;;;;;;;11.15;92.15;100577.97;5098695;28;20032;-82
2022/11/09 06:24:42;;;;;;;12.60;2.40;;;;;;;11.13;92.06;100583.44;5103444;28;20032;-82
2022/11/09 06:27:07;;;;;;;11.70;3.03;;;;;;;11.13;92.21;100583.44;5092889;28;20438;-82
2022/11/09 06:29:32;;;;;;;13.43;2.75;;;;;;;11.14;91.98;100586.91;5102822;28;20099;-81
2022/11/09 06:31:58;;;;;;;12.90;2.65;;;;;;;11.12;92.72;100589.69;5104075;28;20389;-82
2022/11/09 06:34:23;;;;;;;11.77;3.08;;;;;;;11.10;92.57;100578.34;5097968;28;20088;-81
2022/11/09 06:36:49;;;;;;;11.90;2.92;;;;;;;11.09;92.71;100595.25;5096665;28;20035;-82
2022/11/09 06:39:14;;;;;;;8.52;2.20;;;;;;;11.08;92.79;100593.59;5067900;28;20048;-81
2022/11/09 06:41:39;;;;;;;11.73;2.28;;;;;;;11.08;93.01;100596.25;5099044;28;20035;-81
2022/11/09 06:44:04;;;;;;;11.43;2.70;;;;;;;11.09;93.27;100604.09;5092991;28;20065;-81
2022/11/09 06:46:31;;;;;;;9.55;2.38;;;;;;;11.09;93.48;100595.25;5103514;28;20036;-81
2022/11/09 06:48:57;;;;;;;9.98;2.58;;;;;;;11.09;93.46;100596.13;5098702;28;20126;-82
2022/11/09 06:51:22;;;;;;;12.10;2.72;;;;;;;11.09;93.59;100601.44;5095529;28;20028;-82
2022/11/09 06:53:47;;;;;;;12.80;2.80;;;;;;;11.08;93.57;100593.59;5090489;28;20458;-82
2022/11/09 06:56:14;;;;;;;14.60;3.47;;;;;;;11.08;93.80;100602.41;5093048;28;20039;-81
2022/11/09 06:58:39;;;;;;;10.90;2.80;;;;;;;11.07;93.47;100603.41;5091915;28;20020;-81
2022/11/09 07:01:14;;;;;;;8.57;2.55;;;;;;;11.07;93.39;100611.38;5102441;28;20392;-81
2022/11/09 07:03:39;;;;;;;7.20;2.38;;;;;;;11.08;93.39;100607.72;5103690;28;20038;-82
2022/11/09 07:06:07;;;;;;;13.00;2.63;;;;;;;11.07;93.65;100613.16;5101723;28;20141;-80
2022/11/09 07:08:33;;;;;;;10.90;2.72;;;;;;;11.05;93.58;100609.78;5088634;28;20507;-81
2022/11/09 07:11:07;;;;;;;10.20;2.60;;;;;;;11.04;93.44;100621.38;5089909;28;20021;-81
2022/11/09 07:13:32;;;;;;;15.40;2.67;;;;;;;11.02;93.39;100618.00;5098390;28;20039;-82
2022/11/09 07:15:58;;;;;;;12.05;2.72;;;;;;;11.04;93.50;100618.72;5101501;28;20133;-81
2022/11/09 07:18:23;;;;;;;10.88;3.00;;;;;;;11.01;93.68;100617.19;5089626;28;20028;-81
2022/11/09 07:20:52;;;;;;;12.05;2.85;;;;;;;11.02;93.36;100626.81;5094885;28;20040;-81
2022/11/09 07:23:17;;;;;;;13.98;2.70;;;;;;;11.03;93.65;100633.00;5097626;28;20477;-81
2022/11/09 07:25:43;;;;;;;10.88;2.63;;;;;;;11.04;93.73;100632.00;5089506;28;20067;-81
2022/11/09 07:28:10;;;;;;;9.80;3.10;;;;;;;11.05;93.56;100634.53;5092332;28;20033;-81
2022/11/09 07:30:36;;;;;;;11.10;2.67;;;;;;;11.05;93.63;100637.19;5082215;28;20040;-81
2022/11/09 07:33:02;;;;;;;10.23;2.42;;;;;;;11.07;93.66;100637.94;5089357;28;20119;-81
2022/11/09 07:35:28;;;;;;;13.20;2.58;;;;;;;11.07;93.44;100629.97;5089439;28;20068;-81
2022/11/09 07:37:53;;;;;;;11.13;2.47;;;;;;;11.10;93.57;100640.31;5091069;28;20041;-81
2022/11/09 07:40:19;;;;;;;13.23;2.85;;;;;;;11.10;93.43;100640.31;5096392;28;20097;-81
2022/11/09 07:42:44;;;;;;;9.50;2.60;;;;;;;11.10;93.84;100642.16;5095896;28;20028;-82
2022/11/09 07:45:10;;;;;;;12.35;2.70;;;;;;;11.11;93.55;100646.50;5093805;28;20071;-82
2022/11/09 07:47:35;;;;;;;13.00;3.03;;;;;;;11.11;93.47;100641.19;5096122;28;20028;-81
2022/11/09 07:50:01;;;;;;;9.25;2.72;;;;;;;11.10;93.39;100636.84;5092089;28;20044;-82
2022/11/09 07:52:27;;;;;;;12.07;2.40;;;;;;;11.14;93.66;100640.94;5096441;28;20024;-82
2022/11/09 07:54:53;;;;;;;8.65;2.63;;;;;;;11.16;93.63;100640.78;5091171;28;20127;-81
2022/11/09 07:57:18;;;;;;;12.32;2.75;;;;;;;11.17;93.27;100639.81;5093273;28;20054;-81
2022/11/09 07:59:44;;;;;;;11.13;2.90;;;;;;;11.18;93.53;100650.34;5095850;28;20505;-81
2022/11/09 08:02:09;;;;;;;12.95;2.80;;;;;;;11.21;93.83;100650.09;5090211;28;20099;-82
2022/11/09 08:04:35;;;;;;;13.85;3.03;;;;;;;11.20;93.69;100653.72;5087291;28;20044;-82
2022/11/09 08:07:00;;;;;;;12.75;2.92;;;;;;;11.20;93.81;100651.06;5090996;28;20394;-82
2022/11/09 08:09:27;;;;;;;9.82;2.70;;;;;;;11.23;93.53;100657.94;5086019;28;20060;-82
2022/11/09 08:11:59;;;;;;;7.43;2.60;;;;;;;11.26;93.19;100660.34;5071125;27;20728;-49
2022/11/09 08:14:24;;;;;;;11.30;2.75;;;;;;;11.27;93.37;100660.22;5063764;28;20047;-46
2022/11/09 08:16:51;;;;;;;8.43;2.58;;;;;;;11.29;93.47;100660.06;5059450;28;20075;-46
2022/11/09 08:19:16;;;;;;;10.60;2.70;;;;;;;11.30;93.12;100654.63;5054807;28;20044;-47
2022/11/09 08:21:42;;;;;;;9.52;2.30;;;;;;;11.34;93.24;100675.66;5055343;28;20017;-46
2022/11/09 08:24:07;;;;;;;10.00;2.70;;;;;;;11.36;93.08;100671.03;5056132;28;20077;-47
2022/11/09 08:26:32;;;;;;;10.35;2.78;;;;;;;11.40;92.96;100672.50;5065295;28;20438;-46
2022/11/09 08:28:57;;;;;;;11.05;2.85;;;;;;;11.42;93.41;100678.53;5053494;28;20119;-47
2022/11/09 08:31:23;;;;;;;11.23;2.80;;;;;;;11.44;92.83;100672.13;5056743;28;20063;-46
2022/11/09 08:33:48;;;;;;;13.50;2.58;;;;;;;11.48;92.57;100684.19;5052580;28;20053;-46
2022/11/09 08:36:15;;;;;;;7.50;2.42;;;;;;;11.51;92.30;100691.06;5060590;28;20052;-45
2022/11/09 08:38:42;;;;;;;8.88;2.53;;;;;;;11.53;92.49;100682.97;5060122;28;20105;-47
2022/11/09 08:41:08;;;;;;;14.35;2.67;;;;;;;11.57;92.02;100681.72;5057798;27;20402;-46
2022/11/09 08:43:33;;;;;;;12.63;2.72;;;;;;;11.60;91.97;100692.13;5052952;28;20028;-47
2022/11/09 08:45:58;;;;;;;11.75;2.50;;;;;;;11.63;90.93;100695.34;5058680;28;20060;-47
2022/11/09 08:48:24;;;;;;;11.30;3.05;;;;;;;11.67;91.37;100693.28;5059071;28;20119;-47
2022/11/09 08:50:57;;;;;;;8.40;2.40;;;;;;;11.74;91.74;100696.28;5054877;28;20120;-46
2022/11/09 08:53:24;;;;;;;11.82;2.90;;;;;;;11.81;90.41;100692.97;5055240;28;20479;-46
2022/11/09 08:55:50;;;;;;;11.05;2.78;;;;;;;11.90;90.21;100690.50;5051288;28;20034;-47
2022/11/09 08:58:16;;;;;;;12.07;2.72;;;;;;;11.97;90.78;100697.03;5052026;28;20033;-46
2022/11/09 09:00:41;;;;;;;8.23;2.25;;;;;;;12.05;90.06;100683.91;5055150;27;20515;-46
2022/11/09 09:03:07;;;;;;;12.35;3.10;;;;;;;12.15;89.14;100689.28;5055343;28;20017;-50
2022/11/09 09:05:34;;;;;;;15.52;2.88;;;;;;;12.27;88.88;100690.88;5047858;28;20033;-47
2022/11/09 09:08:00;;;;;;;12.35;2.72;;;;;;;12.34;88.63;100688.53;5052338;28;20029;-46
2022/11/09 09:10:26;;;;;;;11.25;2.78;;;;;;;12.43;88.23;100697.56;5062414;28;20084;-46
2022/11/09 09:12:51;;;;;;;10.57;2.97;;;;;;;12.48;86.94;100690.84;5063026;28;20059;-47
2022/11/09 09:15:16;;;;;;;8.30;2.55;;;;;;;12.56;86.10;100693.69;5055827;28;20022;-48
2022/11/09 09:17:42;;;;;;;7.55;2.55;;;;;;;12.58;85.81;100707.72;5057169;28;20035;-48
2022/11/09 09:20:07;;;;;;;11.38;2.45;;;;;;;12.65;85.34;100705.38;5052031;28;20031;-46
2022/11/09 09:22:33;;;;;;;7.60;2.20;;;;;;;12.70;85.86;100704.97;5048753;28;20075;-49
2022/11/09 09:24:58;;;;;;;12.88;2.40;;;;;;;12.71;84.93;100709.31;5047077;28;20032;-50
2022/11/09 09:27:24;;;;;;;13.40;3.05;;;;;;;12.72;84.57;100703.88;5043541;28;20025;-47
2022/11/09 09:29:49;;;;;;;11.10;2.70;;;;;;;12.75;83.97;100703.56;5046483;28;20036;-47
2022/11/09 09:32:14;;;;;;;9.70;2.57;;;;;;;12.73;83.09;100716.19;5048931;28;20083;-46
2022/11/09 09:34:39;;;;;;;10.07;2.70;;;;;;;12.74;83.50;100709.06;5045850;28;20286;-46
2022/11/09 09:37:05;;;;;;;10.40;2.70;;;;;;;12.81;83.10;100714.69;5048291;28;20020;-47
2022/11/09 09:39:30;;;;;;;9.85;2.10;;;;;;;12.85;83.61;100705.44;5049601;28;20027;-47
2022/11/09 09:41:58;;;;;;;9.93;2.70;;;;;;;12.89;82.38;100709.50;5047687;28;20559;-47
2022/11/09 09:44:35;;;;;;;10.48;2.55;;;;;;;12.95;82.50;100714.31;5051508;28;20360;-46
2022/11/09 09:47:14;;;;;;;10.73;2.60;;;;;;;12.95;82.15;100706.31;5046773;28;20714;-46
2022/11/09 09:49:45;;;;;;;;;;;;;;;13.05;82.92;100719.66;5047576;28;20055;-46
2022/11/09 09:52:19;;;;;;;7.45;2.38;;;;;;;13.09;81.65;100723.72;5043146;28;19948;-46
2022/11/09 09:55:04;;;;;;;11.15;2.65;;;;;;;13.23;81.31;100720.69;5052498;28;20467;-47
2022/11/09 09:57:30;;;;;;;10.30;2.72;;;;;;;13.37;80.63;100737.28;5050197;28;20104;-47
2022/11/09 09:59:59;;;;;;;10.77;2.60;;;;;;;13.49;80.15;100733.53;5049872;28;20048;-47
2022/11/09 10:02:34;;;;;;;8.02;2.15;;;;;;;13.62;80.59;100742.09;5049062;28;20039;-47
2022/11/09 10:05:05;;;;;;;15.63;3.05;;;;;;;13.66;78.71;100740.00;5049449;28;20497;-47
2022/11/09 10:07:58;;;;;;;12.40;2.58;;;;;;;13.71;78.61;100745.75;5045143;28;20112;-47
2022/11/09 10:10:33;;;;;;;11.20;2.78;;;;;;;13.72;77.68;100747.41;5034797;28;20077;-47
2022/11/09 10:13:22;;;;;;;8.32;2.25;;;;;;;13.73;77.74;100750.94;5038890;28;20485;-46
2022/11/09 10:16:23;;;;;;;9.55;2.92;;;;;;;13.73;78.32;100743.78;5040104;28;20021;-46
2022/11/09 10:18:51;;;;;;;11.75;2.65;;;;;;;13.79;76.34;100753.91;5037845;28;20045;-46
2022/11/09 10:21:30;;;;;;;10.60;2.65;;;;;;;13.81;75.50;100748.44;5037939;28;20091;-47
2022/11/09 10:24:10;;;;;;;7.97;2.40;;;;;;;13.92;76.77;100753.59;5035446;28;20124;-46
2022/11/09 10:26:49;;;;;;;6.47;2.15;;;;;;;13.97;75.54;100743.38;5038209;28;20017;-46
2022/11/09 10:29:20;;;;;;;13.40;2.70;;;;;;;13.97;75.40;100751.38;5035576;28;20037;-46
2022/11/09 10:31:47;;;;;;;8.88;2.45;;;;;;;14.01;74.97;100749.25;5043691;28;20107;-49
2022/11/09 10:34:28;;;;;;;12.90;2.58;;;;;;;14.02;74.40;100745.59;5034719;28;20041;-48
2022/11/09 10:37:03;;;;;;;11.27;2.33;;;;;;;14.03;74.90;100753.44;5049090;28;20025;-48
2022/11/09 10:39:39;;;;;;;10.73;2.17;;;;;;;14.01;73.61;100759.94;5042237;28;20383;-45
2022/11/09 10:42:04;;;;;;;10.88;2.33;;;;;;;14.02;73.50;100750.91;5044341;28;20479;-46
2022/11/09 10:44:29;;;;;;;10.02;2.35;;;;;;;13.98;73.30;100769.06;5044139;28;20028;-46
2022/11/09 10:47:10;;;;;;;14.73;2.72;;;;;;;13.96;74.14;100763.03;5045257;28;20033;-47
2022/11/09 10:49:36;;;;;;;10.68;3.00;;;;;;;13.97;74.07;100778.06;5043719;28;20029;-50
2022/11/09 10:52:02;;;;;;;11.60;2.47;;;;;;;13.97;73.42;100780.75;5046055;28;20021;-46
2022/11/09 10:54:32;;;;;;;8.30;2.05;;;;;;;13.92;72.74;100780.28;5051695;28;20400;-48
2022/11/09 10:57:10;;;;;;;9.70;2.30;;;;;;;13.89;73.24;100783.28;5050455;28;20147;-46
2022/11/09 10:59:50;;;;;;;10.75;2.83;;;;;;;13.83;73.43;100771.31;5053460;28;20115;-48
2022/11/09 11:02:24;;;;;;;;;;;;;;;13.93;75.66;100789.16;5052991;28;20068;-47
2022/11/09 11:04:51;;;;;;;14.25;2.65;;;;;;;13.81;73.11;100781.28;5052356;28;19917;-47
2022/11/09 11:07:21;;;;;;;9.15;2.20;;;;;;;13.82;73.71;100775.00;5055900;28;20116;-46
2022/11/09 11:09:46;;;;;;;11.02;2.60;;;;;;;13.83;73.29;100775.81;5051972;28;20029;-49
2022/11/09 11:12:14;;;;;;;7.90;1.95;;;;;;;13.81;72.74;100773.28;5056893;28;20048;-47
2022/11/09 11:14:43;;;;;;;7.93;1.90;;;;;;;13.78;73.48;100780.75;5050713;28;20039;-47
2022/11/09 11:17:25;;;;;;;10.88;2.13;;;;;;;13.74;74.03;100782.84;5047652;28;20513;-47
2022/11/09 11:19:50;;;;;;;7.30;1.95;;;;;;;13.71;72.36;100783.13;5045810;28;20044;-47
2022/11/09 11:22:23;;;;;;;7.10;2.00;;;;;;;13.68;72.42;100783.41;5043832;28;20025;-48